Time;durP1;ratioP1;P1;durP2;ratioP2;P2;SDS_P1;SDS_P2;PMS_P1;PMS_P2;Temp;Humidity;BMP_temperature;BMP_pressure;BME280_temperature;BME280_humidity;BME280_pressure;Samples;Min_cycle;Max_cycle;Signal;HPM_P1;HPM_P2
2022/03/18 00:01:47;;;;;;;19.75;7.18;;;6.80;99.90;;;;;;4973750;28;20112;-66
2022/03/18 00:04:12;;;;;;;17.42;7.53;;;6.80;99.90;;;;;;4990728;28;20043;-66
2022/03/18 00:06:39;;;;;;;20.35;7.45;;;6.80;99.90;;;;;;4982898;28;20146;-65
2022/03/18 00:09:05;;;;;;;16.15;6.18;;;6.70;99.90;;;;;;4968330;28;20283;-65
2022/03/18 00:11:30;;;;;;;22.65;7.68;;;6.80;99.90;;;;;;4954083;28;20130;-66
2022/03/18 00:13:58;;;;;;;22.33;6.40;;;6.80;99.90;;;;;;4952357;29;20039;-65
2022/03/18 00:16:24;;;;;;;27.40;7.93;;;6.80;99.90;;;;;;4958135;28;20046;-65
2022/03/18 00:18:49;;;;;;;14.80;5.13;;;6.80;99.90;;;;;;4958078;28;20046;-66
2022/03/18 00:21:16;;;;;;;20.73;6.63;;;6.80;99.90;;;;;;4970692;28;20043;-66
2022/03/18 00:23:41;;;;;;;21.13;6.85;;;6.70;99.90;;;;;;4951383;28;20062;-66
2022/03/18 00:26:07;;;;;;;16.88;7.18;;;6.70;99.90;;;;;;4969267;28;20414;-66
2022/03/18 00:28:33;;;;;;;15.55;6.82;;;6.70;99.90;;;;;;4975341;28;20410;-65
2022/03/18 00:30:58;;;;;;;15.35;6.78;;;6.90;99.90;;;;;;4971231;28;20051;-65
2022/03/18 00:33:25;;;;;;;18.63;7.18;;;6.90;99.90;;;;;;4970215;28;20073;-66
2022/03/18 00:35:51;;;;;;;14.50;5.38;;;7.00;99.90;;;;;;4982431;28;20473;-65
2022/03/18 00:38:17;;;;;;;30.02;8.43;;;7.00;99.90;;;;;;4955136;28;20043;-65
2022/03/18 00:40:44;;;;;;;18.98;6.22;;;7.00;99.90;;;;;;4970350;28;20037;-65
2022/03/18 00:43:10;;;;;;;22.05;7.72;;;7.10;99.90;;;;;;4971733;28;20097;-65
2022/03/18 00:45:36;;;;;;;23.27;7.72;;;7.00;99.90;;;;;;4960231;28;20043;-65
2022/03/18 00:53:31;;;;;;;12.75;6.18;;;7.00;99.90;;;;;;4950996;28;20124;-65
2022/03/18 00:55:56;;;;;;;12.98;6.05;;;7.00;99.90;;;;;;4956833;28;20062;-65
2022/03/18 00:58:22;;;;;;;27.33;7.40;;;6.90;99.90;;;;;;4956509;28;20047;-66
2022/03/18 01:00:47;;;;;;;17.60;6.80;;;6.90;99.90;;;;;;4963009;28;20043;-65
2022/03/18 01:03:15;;;;;;;13.02;5.10;;;6.90;99.90;;;;;;4973342;28;20054;-65
2022/03/18 01:05:41;;;;;;;20.42;6.20;;;7.00;99.90;;;;;;4951863;28;20087;-65
2022/03/18 01:08:07;;;;;;;24.55;9.02;;;7.00;99.90;;;;;;4958149;28;20471;-65
2022/03/18 01:10:33;;;;;;;17.00;5.53;;;7.00;99.90;;;;;;4950668;28;20051;-65
2022/03/18 01:12:58;;;;;;;20.75;7.03;;;7.00;99.90;;;;;;4951846;28;20134;-65
2022/03/18 01:15:24;;;;;;;18.42;6.53;;;6.90;99.90;;;;;;4959490;28;20138;-65
2022/03/18 01:17:49;;;;;;;15.77;6.53;;;6.90;99.90;;;;;;4986368;28;20060;-65
2022/03/18 01:20:15;;;;;;;21.48;7.85;;;6.80;99.90;;;;;;4967548;28;20505;-66
2022/03/18 01:22:40;;;;;;;13.00;6.25;;;6.90;99.90;;;;;;4950768;28;20047;-65
2022/03/18 01:25:06;;;;;;;16.50;5.72;;;6.90;99.90;;;;;;4951636;29;20055;-65
2022/03/18 01:27:32;;;;;;;19.25;7.65;;;6.80;99.90;;;;;;4979659;28;20625;-65
2022/03/18 01:29:58;;;;;;;10.57;5.82;;;6.80;99.90;;;;;;4964189;28;20083;-65
2022/03/18 01:32:23;;;;;;;18.60;6.43;;;6.80;99.90;;;;;;4979565;28;20076;-65
2022/03/18 01:34:49;;;;;;;11.55;4.90;;;6.80;99.90;;;;;;4970596;28;20106;-65
2022/03/18 01:37:14;;;;;;;11.73;5.45;;;6.80;99.90;;;;;;4979544;28;20425;-66
2022/03/18 01:39:40;;;;;;;14.35;5.28;;;6.80;99.90;;;;;;4969392;28;20125;-65
2022/03/18 01:42:05;;;;;;;17.10;5.85;;;6.80;99.90;;;;;;4956539;28;20097;-65
2022/03/18 01:44:38;;;;;;;16.90;5.28;;;6.80;99.90;;;;;;4957907;28;20698;-65
2022/03/18 01:47:04;;;;;;;17.83;5.53;;;6.80;99.90;;;;;;4969739;28;20483;-65
2022/03/18 01:49:30;;;;;;;13.25;4.72;;;6.70;99.90;;;;;;4969128;28;20054;-65
2022/03/18 01:51:55;;;;;;;18.08;6.80;;;6.80;99.90;;;;;;4969148;28;20082;-66
2022/03/18 01:57:05;;;;;;;12.35;4.40;;;6.80;99.90;;;;;;4987213;28;20042;-65
2022/03/18 01:59:32;;;;;;;15.63;4.45;;;6.80;99.90;;;;;;4952535;28;20047;-65
2022/03/18 02:01:58;;;;;;;16.60;6.13;;;6.80;99.90;;;;;;4983020;28;20108;-65
2022/03/18 02:04:24;;;;;;;19.65;5.43;;;6.80;99.90;;;;;;4987515;28;20915;-65
2022/03/18 02:06:50;;;;;;;12.40;4.82;;;6.90;99.90;;;;;;4963626;28;20035;-65
2022/03/18 02:09:16;;;;;;;14.48;5.88;;;6.80;99.90;;;;;;4950430;28;20659;-65
2022/03/18 02:11:43;;;;;;;12.95;4.22;;;6.80;99.90;;;;;;4950181;29;20050;-65
2022/03/18 02:14:08;;;;;;;18.00;5.43;;;6.80;99.90;;;;;;4951149;29;20043;-66
2022/03/18 02:16:34;;;;;;;19.30;5.97;;;6.70;99.90;;;;;;4958798;28;20055;-65
2022/03/18 02:18:59;;;;;;;12.68;5.20;;;6.70;99.90;;;;;;4953639;28;20493;-66
2022/03/18 02:21:28;;;;;;;12.70;4.95;;;6.80;99.90;;;;;;4968260;28;20046;-65
2022/03/18 02:23:53;;;;;;;14.68;4.88;;;6.80;99.90;;;;;;4969938;28;20159;-65
2022/03/18 02:26:19;;;;;;;10.02;4.53;;;6.70;99.90;;;;;;4971533;28;20755;-66
2022/03/18 02:28:44;;;;;;;10.63;4.50;;;6.70;99.90;;;;;;4970157;28;20402;-65
2022/03/18 02:31:10;;;;;;;16.45;4.97;;;6.80;99.90;;;;;;4959368;28;20430;-65
2022/03/18 02:33:36;;;;;;;10.20;4.40;;;6.80;99.90;;;;;;4974095;28;20062;-65
2022/03/18 02:36:02;;;;;;;18.83;5.82;;;6.80;99.90;;;;;;4971004;28;20043;-65
2022/03/18 02:38:27;;;;;;;10.77;4.80;;;6.90;99.90;;;;;;4962570;28;20051;-65
2022/03/18 02:40:53;;;;;;;11.88;4.95;;;6.80;99.90;;;;;;4961696;28;20039;-66
2022/03/18 02:43:19;;;;;;;11.07;4.40;;;6.80;99.90;;;;;;4950321;28;20175;-65
2022/03/18 02:45:44;;;;;;;13.80;4.80;;;6.80;99.90;;;;;;4960582;28;20043;-65
2022/03/18 02:48:10;;;;;;;13.07;5.05;;;6.80;99.90;;;;;;4965808;28;20458;-65
2022/03/18 02:50:35;;;;;;;15.77;5.25;;;6.90;99.90;;;;;;4969211;28;20046;-65
2022/03/18 02:53:01;;;;;;;9.57;4.45;;;6.90;99.90;;;;;;4958888;28;20534;-65
2022/03/18 02:55:27;;;;;;;13.10;4.50;;;6.90;99.90;;;;;;4962141;28;20233;-65
2022/03/18 02:57:52;;;;;;;16.35;5.57;;;6.80;99.90;;;;;;4989030;28;20065;-66
2022/03/18 03:00:18;;;;;;;14.02;5.57;;;6.80;99.90;;;;;;4980907;28;20043;-65
2022/03/18 03:02:44;;;;;;;13.13;6.25;;;6.80;99.90;;;;;;4963685;28;20046;-65
2022/03/18 03:08:00;;;;;;;12.95;4.78;;;6.80;99.90;;;;;;4964059;28;20418;-65
2022/03/18 03:10:28;;;;;;;9.88;4.05;;;6.80;99.90;;;;;;4985257;28;20046;-65
2022/03/18 03:12:54;;;;;;;11.15;5.18;;;6.90;99.90;;;;;;4975179;28;20047;-65
2022/03/18 03:15:20;;;;;;;9.95;5.55;;;6.90;99.90;;;;;;4980347;28;20052;-65
2022/03/18 03:17:45;;;;;;;18.48;4.72;;;6.90;99.90;;;;;;4992783;28;20042;-65
2022/03/18 03:20:11;;;;;;;9.15;4.82;;;6.90;99.90;;;;;;4956357;28;20487;-65
2022/03/18 03:22:37;;;;;;;12.38;4.28;;;6.90;99.90;;;;;;4957603;28;20031;-65
2022/03/18 03:25:03;;;;;;;12.13;4.97;;;6.90;99.90;;;;;;4966004;28;20097;-65
2022/03/18 03:27:32;;;;;;;14.05;5.00;;;6.90;99.90;;;;;;4991408;28;20031;-66
2022/03/18 03:30:03;;;;;;;14.80;5.05;;;6.90;99.90;;;;;;4966383;28;20058;-65
2022/03/18 03:32:28;;;;;;;12.98;5.78;;;6.90;99.90;;;;;;4970324;28;20434;-65
2022/03/18 03:34:55;;;;;;;12.48;5.45;;;6.90;99.90;;;;;;4988372;28;20188;-65
2022/03/18 03:37:21;;;;;;;13.23;5.50;;;6.90;99.90;;;;;;4990304;28;20081;-65
2022/03/18 03:39:47;;;;;;;15.43;5.43;;;6.90;99.90;;;;;;4979501;28;20482;-65
2022/03/18 03:42:12;;;;;;;10.65;5.55;;;6.80;99.90;;;;;;4953573;28;20046;-65
2022/03/18 03:44:38;;;;;;;14.32;5.35;;;6.70;99.90;;;;;;4955288;28;20430;-65
2022/03/18 03:47:04;;;;;;;13.40;4.80;;;6.80;99.90;;;;;;4964917;28;20046;-65
2022/03/18 03:49:29;;;;;;;19.55;5.50;;;6.80;99.90;;;;;;4952870;28;20126;-65
2022/03/18 03:51:55;;;;;;;12.02;5.03;;;6.90;99.90;;;;;;4952762;29;20047;-65
2022/03/18 03:54:20;;;;;;;12.68;5.07;;;6.90;99.90;;;;;;4961243;28;20043;-66
2022/03/18 03:56:46;;;;;;;12.88;5.80;;;6.90;99.90;;;;;;4961924;28;20063;-65
2022/03/18 03:59:11;;;;;;;9.88;5.53;;;6.90;99.90;;;;;;4959117;28;20049;-65
2022/03/18 04:01:38;;;;;;;13.63;5.63;;;6.90;99.90;;;;;;4953606;28;20055;-65
2022/03/18 04:04:04;;;;;;;14.13;5.65;;;6.90;99.90;;;;;;4990297;28;20046;-65
2022/03/18 04:06:30;;;;;;;13.38;6.05;;;7.00;99.90;;;;;;4978703;28;20053;-65
2022/03/18 04:08:56;;;;;;;17.50;6.10;;;6.80;99.90;;;;;;4980377;28;20042;-65
2022/03/18 04:11:21;;;;;;;12.32;5.55;;;6.80;99.90;;;;;;4956042;28;20586;-65
2022/03/18 04:13:47;;;;;;;13.70;5.50;;;6.80;99.90;;;;;;4990794;28;20050;-65
2022/03/18 04:16:12;;;;;;;13.18;5.78;;;6.90;99.90;;;;;;4975908;28;20386;-65
2022/03/18 04:18:38;;;;;;;17.90;5.53;;;6.80;99.90;;;;;;4961494;28;20130;-65
2022/03/18 04:21:03;;;;;;;12.45;5.82;;;6.90;99.90;;;;;;4961614;28;20050;-65
2022/03/18 04:23:29;;;;;;;12.73;6.30;;;6.90;99.90;;;;;;4952052;28;20047;-65
2022/03/18 04:25:54;;;;;;;12.13;5.53;;;7.00;99.90;;;;;;4973581;28;20043;-65
2022/03/18 04:28:20;;;;;;;13.75;5.75;;;7.00;99.90;;;;;;4951686;28;20051;-65
2022/03/18 04:30:45;;;;;;;13.68;6.50;;;6.80;99.90;;;;;;4960979;28;20121;-66
2022/03/18 04:33:11;;;;;;;16.27;6.55;;;6.80;99.90;;;;;;4967178;28;20603;-65
2022/03/18 04:35:36;;;;;;;13.15;6.85;;;6.80;99.90;;;;;;4971337;28;20050;-65
2022/03/18 04:38:02;;;;;;;10.77;6.22;;;6.70;99.90;;;;;;4984197;28;20074;-65
2022/03/18 04:40:28;;;;;;;8.75;5.80;;;6.50;99.90;;;;;;4962899;28;20062;-65
2022/03/18 04:42:54;;;;;;;14.75;6.78;;;6.40;99.90;;;;;;4952846;28;20047;-65
2022/03/18 04:45:19;;;;;;;12.93;5.90;;;6.50;99.90;;;;;;4973670;28;20040;-65
2022/03/18 04:47:45;;;;;;;9.65;6.65;;;6.40;99.90;;;;;;4954052;28;20550;-65
2022/03/18 04:50:11;;;;;;;13.02;6.13;;;6.40;99.90;;;;;;4987698;28;20069;-65
2022/03/18 04:52:37;;;;;;;17.00;7.35;;;6.40;99.90;;;;;;4951196;28;20070;-65
2022/03/18 04:55:04;;;;;;;13.35;6.47;;;6.30;99.90;;;;;;4972702;28;20096;-65
2022/03/18 04:57:31;;;;;;;15.35;6.18;;;6.30;99.90;;;;;;4968126;28;20050;-66
2022/03/18 04:59:57;;;;;;;12.50;6.53;;;6.30;99.90;;;;;;4985650;28;20057;-65
2022/03/18 05:02:24;;;;;;;12.55;6.60;;;6.30;99.90;;;;;;4952806;28;20049;-65
2022/03/18 05:04:51;;;;;;;10.68;5.70;;;6.20;99.90;;;;;;4952515;28;20047;-65
2022/03/18 05:07:17;;;;;;;15.27;7.10;;;6.20;99.90;;;;;;4958762;28;20945;-65
2022/03/18 05:09:45;;;;;;;15.70;6.57;;;6.10;99.90;;;;;;4958759;28;20053;-65
2022/03/18 05:12:12;;;;;;;11.35;6.70;;;6.00;99.90;;;;;;4952619;28;20043;-65
2022/03/18 05:14:39;;;;;;;15.07;7.28;;;6.00;99.90;;;;;;4950519;29;20055;-65
2022/03/18 05:17:05;;;;;;;13.38;6.50;;;6.00;99.90;;;;;;4961012;28;20079;-66
2022/03/18 05:19:31;;;;;;;12.88;6.25;;;6.00;99.90;;;;;;4959739;28;20390;-65
2022/03/18 05:21:57;;;;;;;9.25;6.15;;;5.90;99.90;;;;;;4970360;28;20070;-65
2022/03/18 05:24:25;;;;;;;18.77;6.95;;;5.90;99.90;;;;;;4956972;28;20046;-66
2022/03/18 05:26:52;;;;;;;13.77;7.13;;;5.80;99.90;;;;;;4974305;28;20066;-65
2022/03/18 05:29:18;;;;;;;12.85;6.82;;;5.90;99.90;;;;;;4959606;28;20047;-66
2022/03/18 05:31:43;;;;;;;7.35;5.82;;;5.80;99.90;;;;;;4958679;28;20042;-65
2022/03/18 05:34:09;;;;;;;11.50;6.80;;;5.80;99.90;;;;;;4970603;28;20142;-65
2022/03/18 05:36:34;;;;;;;14.27;7.18;;;5.80;99.90;;;;;;4955609;28;20065;-65
2022/03/18 05:39:00;;;;;;;17.15;7.03;;;5.80;99.90;;;;;;4951282;29;20122;-65
2022/03/18 05:41:26;;;;;;;10.73;6.35;;;5.80;99.90;;;;;;4988213;28;20073;-65
2022/03/18 05:43:51;;;;;;;21.30;7.70;;;5.80;99.90;;;;;;4970613;28;20043;-65
2022/03/18 05:46:17;;;;;;;16.17;7.65;;;5.80;99.90;;;;;;4965201;28;20051;-65
2022/03/18 05:48:42;;;;;;;13.88;7.60;;;5.80;99.90;;;;;;4961744;28;20038;-65
2022/03/18 05:51:08;;;;;;;17.88;6.90;;;5.80;99.90;;;;;;4977822;28;20101;-65
2022/03/18 05:53:34;;;;;;;18.73;7.68;;;5.80;99.90;;;;;;4953105;28;20500;-65
2022/03/18 05:58:44;;;;;;;11.75;6.72;;;5.80;99.90;;;;;;4983652;28;20054;-65
2022/03/18 06:01:13;;;;;;;16.50;7.93;;;5.80;99.90;;;;;;4955916;28;20069;-65
2022/03/18 06:03:38;;;;;;;19.42;8.95;;;5.80;99.90;;;;;;4967508;28;20821;-66
2022/03/18 06:06:04;;;;;;;18.20;8.82;;;5.90;99.90;;;;;;4982381;28;20085;-65
2022/03/18 06:13:58;;;;;;;14.23;8.13;;;5.90;99.90;;;;;;4970238;28;20129;-65
2022/03/18 06:16:24;;;;;;;15.75;7.75;;;5.90;99.90;;;;;;4977160;28;20043;-65
2022/03/18 06:18:50;;;;;;;17.17;7.65;;;6.00;99.90;;;;;;4959174;28;20050;-65
2022/03/18 06:21:16;;;;;;;15.50;7.75;;;6.00;99.90;;;;;;4959760;28;20043;-65
2022/03/18 06:23:42;;;;;;;13.73;8.88;;;6.00;99.90;;;;;;4982733;28;20063;-65
2022/03/18 06:26:08;;;;;;;19.23;8.25;;;6.00;99.90;;;;;;4965211;28;20050;-65
2022/03/18 06:28:33;;;;;;;13.55;7.78;;;6.00;99.90;;;;;;4969456;28;20529;-65
2022/03/18 06:30:59;;;;;;;18.98;8.65;;;6.00;99.90;;;;;;4970506;28;20053;-65
2022/03/18 06:33:27;;;;;;;17.13;9.00;;;6.00;99.90;;;;;;4947636;28;20523;-65
2022/03/18 06:35:53;;;;;;;16.50;8.73;;;6.10;99.90;;;;;;4968580;28;20529;-65
2022/03/18 06:38:18;;;;;;;17.02;9.32;;;6.10;99.90;;;;;;4963579;28;20047;-65
2022/03/18 06:40:44;;;;;;;13.35;8.25;;;6.10;99.90;;;;;;4985703;28;20082;-65
2022/03/18 06:43:09;;;;;;;17.63;10.18;;;6.10;99.90;;;;;;4993353;28;20042;-65
2022/03/18 06:45:35;;;;;;;16.15;8.50;;;6.20;99.90;;;;;;4970096;28;20119;-65
2022/03/18 06:48:00;;;;;;;23.17;10.38;;;6.20;99.90;;;;;;4956195;28;20129;-65
2022/03/18 06:50:26;;;;;;;22.40;9.15;;;6.30;99.90;;;;;;4971867;28;20042;-65
2022/03/18 06:52:51;;;;;;;16.15;8.68;;;6.40;99.90;;;;;;4953586;28;20083;-65
2022/03/18 06:55:17;;;;;;;18.88;9.02;;;6.50;99.90;;;;;;4980397;28;20058;-65
2022/03/18 06:57:43;;;;;;;14.63;8.52;;;6.50;99.90;;;;;;4973760;28;20109;-65
2022/03/18 07:00:10;;;;;;;13.10;8.77;;;6.50;99.90;;;;;;4965199;28;20083;-65
2022/03/18 07:02:35;;;;;;;19.10;9.40;;;6.70;99.90;;;;;;4979883;28;20048;-65
2022/03/18 07:05:01;;;;;;;20.98;10.13;;;6.80;99.90;;;;;;4971753;28;20034;-65
2022/03/18 07:07:27;;;;;;;17.38;10.00;;;6.80;99.90;;;;;;4954147;28;20047;-65
2022/03/18 07:09:52;;;;;;;18.58;9.93;;;6.90;99.90;;;;;;4956564;28;20521;-65
2022/03/18 07:12:18;;;;;;;18.77;10.27;;;6.90;99.90;;;;;;4964111;28;20055;-65
2022/03/18 07:14:43;;;;;;;18.45;9.50;;;7.00;99.90;;;;;;4955604;28;20051;-66
2022/03/18 07:19:53;;;;;;;21.00;8.73;;;7.10;99.90;;;;;;4963175;28;20094;-66
2022/03/18 07:22:19;;;;;;;19.67;9.55;;;7.10;99.90;;;;;;4961427;28;20066;-66
2022/03/18 07:24:45;;;;;;;21.95;10.25;;;7.30;99.90;;;;;;4972479;28;20043;-66
2022/03/18 07:27:10;;;;;;;18.20;9.05;;;7.30;99.90;;;;;;4956047;28;20043;-66
2022/03/18 07:29:36;;;;;;;25.40;10.00;;;7.50;99.90;;;;;;4952660;29;20450;-66
2022/03/18 07:32:03;;;;;;;22.10;8.98;;;7.60;99.90;;;;;;4970909;28;20038;-66
2022/03/18 07:34:29;;;;;;;31.10;9.45;;;7.70;99.90;;;;;;4951461;28;20572;-66
2022/03/18 07:36:55;;;;;;;29.30;9.65;;;7.70;99.90;;;;;;4952942;29;20047;-66
2022/03/18 07:39:20;;;;;;;27.75;9.00;;;7.80;99.90;;;;;;4956898;28;20126;-66
2022/03/18 07:41:46;;;;;;;24.08;9.65;;;7.90;99.90;;;;;;4961341;28;20118;-66
2022/03/18 07:44:12;;;;;;;28.88;9.35;;;8.00;99.90;;;;;;4953273;28;20098;-66
2022/03/18 07:46:38;;;;;;;25.65;8.05;;;8.10;99.90;;;;;;4971186;28;20050;-66
2022/03/18 07:49:03;;;;;;;22.90;10.20;;;8.20;99.90;;;;;;4971827;28;20046;-66
2022/03/18 07:51:30;;;;;;;29.15;8.95;;;8.20;99.90;;;;;;4960466;28;20588;-66
2022/03/18 07:53:56;;;;;;;31.08;9.07;;;8.30;99.90;;;;;;4953223;28;20126;-66
2022/03/18 07:56:22;;;;;;;26.27;8.50;;;8.30;99.90;;;;;;4951346;28;20052;-66
2022/03/18 07:58:49;;;;;;;28.10;7.85;;;8.40;99.90;;;;;;4953121;28;20066;-66
2022/03/18 08:01:15;;;;;;;26.50;8.93;;;8.50;99.90;;;;;;4961974;28;20055;-67
2022/03/18 08:03:41;;;;;;;24.17;9.43;;;8.60;99.90;;;;;;4952372;29;20099;-66
2022/03/18 08:06:06;;;;;;;27.95;8.45;;;8.70;99.90;;;;;;4961272;28;20046;-66
2022/03/18 08:08:32;;;;;;;23.67;7.40;;;8.90;99.90;;;;;;4968300;28;20118;-66
2022/03/18 08:10:57;;;;;;;23.38;7.15;;;9.10;99.90;;;;;;4967032;28;20047;-66
2022/03/18 08:13:23;;;;;;;23.60;7.78;;;9.90;99.90;;;;;;4970522;28;20034;-66
2022/03/18 08:15:49;;;;;;;22.45;7.75;;;10.50;99.90;;;;;;5001954;28;20406;-66
2022/03/18 08:18:15;;;;;;;22.15;6.40;;;11.60;99.90;;;;;;4965276;28;20045;-67
2022/03/18 08:20:41;;;;;;;28.02;7.50;;;12.50;99.90;;;;;;4968055;28;20056;-67
2022/03/18 08:23:12;;;;;;;19.45;6.50;;;13.20;99.90;;;;;;4968611;28;20054;-66
2022/03/18 08:25:38;;;;;;;28.38;6.88;;;13.70;99.90;;;;;;4951373;28;20458;-67
2022/03/18 08:28:07;;;;;;;26.27;6.60;;;14.00;99.90;;;;;;4952071;28;20047;-67
2022/03/18 08:30:36;;;;;;;23.77;6.10;;;14.30;99.90;;;;;;4956943;28;20059;-67
2022/03/18 08:33:03;;;;;;;20.25;6.10;;;14.70;99.90;;;;;;4954883;28;20054;-66
2022/03/18 08:35:30;;;;;;;18.83;7.13;;;14.90;99.90;;;;;;4953762;28;20055;-66
2022/03/18 08:37:58;;;;;;;23.27;6.93;;;15.30;99.90;;;;;;4951998;28;20074;-67
2022/03/18 08:40:26;;;;;;;26.48;6.00;;;15.50;99.90;;;;;;4972729;28;20133;-67
2022/03/18 08:42:53;;;;;;;21.70;5.85;;;15.80;99.90;;;;;;4975623;28;20057;-67
2022/03/18 08:45:18;;;;;;;23.70;5.55;;;16.00;99.90;;;;;;4963091;28;20504;-66
2022/03/18 08:47:45;;;;;;;18.77;5.45;;;16.20;99.90;;;;;;4969995;28;20051;-66
2022/03/18 08:50:11;;;;;;;22.30;5.95;;;16.30;99.90;;;;;;4965444;28;20038;-66
2022/03/18 08:52:37;;;;;;;30.13;5.43;;;16.50;99.90;;;;;;4989804;28;20058;-67
2022/03/18 08:55:03;;;;;;;20.15;5.03;;;16.60;99.90;;;;;;4988082;28;20390;-66
2022/03/18 08:57:31;;;;;;;20.88;5.97;;;16.70;99.90;;;;;;4958451;28;20085;-67
2022/03/18 08:59:57;;;;;;;16.67;5.07;;;16.90;99.90;;;;;;4966257;28;20129;-67
2022/03/18 09:02:23;;;;;;;24.13;5.20;;;16.90;99.90;;;;;;4964413;28;20403;-66
2022/03/18 09:04:50;;;;;;;12.30;4.32;;;17.10;99.90;;;;;;4962934;28;20590;-66
2022/03/18 09:07:16;;;;;;;20.27;4.93;;;17.30;99.90;;;;;;4967446;28;20498;-66
2022/03/18 09:09:42;;;;;;;15.57;4.90;;;17.30;99.90;;;;;;4951352;28;20091;-67
2022/03/18 09:12:08;;;;;;;14.60;4.20;;;17.40;99.90;;;;;;4954302;28;20074;-67
2022/03/18 09:14:33;;;;;;;13.77;4.18;;;17.50;99.90;;;;;;4958063;28;20062;-66
2022/03/18 09:16:59;;;;;;;14.15;4.35;;;17.00;99.90;;;;;;4968242;28;20050;-67
2022/03/18 09:19:25;;;;;;;14.60;4.43;;;16.50;99.90;;;;;;4970378;28;20395;-66
2022/03/18 09:21:50;;;;;;;18.98;5.43;;;15.80;99.90;;;;;;4954049;28;20050;-67
2022/03/18 09:24:16;;;;;;;34.28;5.55;;;15.30;99.90;;;;;;4951508;28;20050;-67
2022/03/18 09:26:42;;;;;;;12.85;4.25;;;14.80;99.90;;;;;;4962367;28;20049;-66
2022/03/18 09:29:08;;;;;;;20.95;5.40;;;14.40;99.90;;;;;;4970386;28;20053;-66
2022/03/18 09:31:33;;;;;;;23.35;5.88;;;14.10;99.90;;;;;;4968599;28;20774;-66
2022/03/18 09:33:59;;;;;;;17.58;4.22;;;14.00;99.90;;;;;;4953206;28;20138;-66
2022/03/18 09:36:25;;;;;;;24.05;5.47;;;14.50;99.90;;;;;;4968427;28;20081;-66
2022/03/18 09:38:51;;;;;;;16.10;5.40;;;15.20;99.90;;;;;;4965562;28;20077;-66
2022/03/18 09:41:17;;;;;;;24.77;5.40;;;15.80;99.90;;;;;;4970985;28;20045;-66
2022/03/18 09:43:43;;;;;;;24.88;5.45;;;16.60;99.90;;;;;;4970308;28;20050;-66
2022/03/18 09:46:11;;;;;;;15.68;4.43;;;16.90;99.90;;;;;;4968101;28;20050;-66
2022/03/18 09:48:38;;;;;;;19.40;4.78;;;17.30;99.90;;;;;;4960006;28;20858;-66
2022/03/18 09:51:04;;;;;;;15.63;5.47;;;17.50;99.90;;;;;;4970207;28;20505;-66
2022/03/18 09:53:30;;;;;;;18.27;4.78;;;17.60;99.90;;;;;;4959322;28;20047;-66
2022/03/18 09:55:57;;;;;;;28.60;6.53;;;17.90;99.90;;;;;;4971518;28;20050;-66
2022/03/18 09:58:22;;;;;;;13.98;4.35;;;18.30;99.90;;;;;;4989287;28;20043;-66
2022/03/18 10:00:50;;;;;;;18.13;4.32;;;18.50;99.90;;;;;;4984648;28;20042;-66
2022/03/18 10:03:17;;;;;;;19.98;4.22;;;18.30;99.90;;;;;;4965361;28;20774;-66
2022/03/18 10:05:58;;;;;;;19.65;4.32;;;18.40;99.90;;;;;;4970120;28;20047;-66
2022/03/18 10:08:39;;;;;;;20.80;5.47;;;18.50;99.90;;;;;;4984359;28;20088;-66
2022/03/18 10:11:20;;;;;;;13.93;4.88;;;18.50;99.90;;;;;;4968719;28;20126;-66
2022/03/18 10:13:56;;;;;;;20.55;4.70;;;18.50;99.90;;;;;;4950813;28;20697;-66
2022/03/18 10:16:35;;;;;;;24.23;5.30;;;18.20;99.90;;;;;;4958872;28;20047;-66
2022/03/18 10:19:04;;;;;;;19.88;4.57;;;17.80;99.90;;;;;;4968872;28;20078;-66
2022/03/18 10:21:29;;;;;;;14.05;3.38;;;17.80;99.90;;;;;;4956190;28;20051;-66
2022/03/18 10:24:15;;;;;;;20.48;4.35;;;17.70;99.90;;;;;;4973295;28;20047;-66
2022/03/18 10:26:41;;;;;;;19.38;4.75;;;17.30;99.90;;;;;;4973162;28;20141;-66
2022/03/18 10:29:11;;;;;;;20.38;5.00;;;17.50;99.90;;;;;;4969151;28;20110;-66
2022/03/18 10:31:39;;;;;;;16.73;4.78;;;17.40;99.90;;;;;;4969292;28;20538;-66
2022/03/18 10:37:21;;;;;;;23.35;5.10;;;17.40;99.90;;;;;;4956419;28;20090;-66
2022/03/18 10:39:49;;;;;;;18.08;4.90;;;17.30;99.90;;;;;;4971426;28;20407;-66
2022/03/18 10:42:17;;;;;;;21.27;4.75;;;17.20;99.90;;;;;;4974332;28;20054;-66
2022/03/18 10:44:45;;;;;;;25.02;7.00;;;17.20;99.90;;;;;;4992956;28;20565;-66
2022/03/18 10:47:26;;;;;;;21.17;4.55;;;17.20;99.90;;;;;;4957817;28;20178;-66
2022/03/18 10:49:54;;;;;;;15.00;3.53;;;17.10;99.90;;;;;;4955993;28;20059;-67
2022/03/18 10:52:23;;;;;;;16.50;4.28;;;17.10;99.90;;;;;;4978944;28;20109;-68
2022/03/18 10:54:50;;;;;;;18.88;4.90;;;17.40;99.90;;;;;;4977681;28;20514;-67
2022/03/18 10:57:17;;;;;;;19.65;4.68;;;17.50;99.90;;;;;;4957045;28;20050;-67
2022/03/18 10:59:42;;;;;;;17.65;4.35;;;17.30;99.90;;;;;;4968712;28;20054;-67
2022/03/18 11:02:11;;;;;;;20.75;5.18;;;17.40;99.90;;;;;;4963834;28;20055;-67
2022/03/18 11:04:37;;;;;;;23.20;5.97;;;17.40;99.90;;;;;;4951406;28;20435;-68
2022/03/18 11:12:35;;;;;;;21.20;5.53;;;17.40;99.90;;;;;;4960909;28;20083;-67
2022/03/18 11:15:03;;;;;;;26.98;5.90;;;17.90;99.90;;;;;;4957037;28;20083;-68
2022/03/18 11:17:29;;;;;;;21.55;5.18;;;18.00;99.90;;;;;;4969854;28;20039;-68
2022/03/18 11:19:59;;;;;;;15.68;3.80;;;17.80;99.90;;;;;;4960908;28;20046;-68
2022/03/18 11:22:26;;;;;;;17.45;4.60;;;18.00;99.90;;;;;;4977934;28;20517;-68
2022/03/18 11:24:52;;;;;;;15.40;4.95;;;18.20;99.90;;;;;;4972361;28;20127;-68
2022/03/18 11:27:19;;;;;;;15.13;4.40;;;18.40;99.90;;;;;;4976624;28;20528;-68
2022/03/18 11:29:44;;;;;;;17.40;5.00;;;18.60;99.90;;;;;;4983094;28;20483;-67
2022/03/18 11:32:10;;;;;;;19.13;3.38;;;18.20;99.90;;;;;;4972603;28;20070;-67
2022/03/18 11:34:46;;;;;;;20.38;4.10;;;18.40;99.90;;;;;;4966060;28;20498;-68
2022/03/18 11:37:11;;;;;;;14.57;5.05;;;18.60;99.90;;;;;;4957403;28;20050;-68
2022/03/18 11:39:38;;;;;;;25.30;5.00;;;18.80;99.90;;;;;;4965749;28;20043;-67
2022/03/18 11:42:09;;;;;;;22.83;5.05;;;18.80;99.90;;;;;;4963990;28;20053;-68
2022/03/18 11:44:49;;;;;;;25.73;4.28;;;18.80;99.90;;;;;;4966508;28;20055;-67
2022/03/18 11:47:30;;;;;;;22.00;4.55;;;19.00;99.90;;;;;;4969582;28;20038;-67
2022/03/18 11:49:56;;;;;;;16.83;3.45;;;19.10;99.90;;;;;;4954430;28;20051;-67
2022/03/18 11:52:22;;;;;;;18.05;3.97;;;19.50;99.90;;;;;;4952669;28;20043;-68
2022/03/18 11:54:54;;;;;;;15.15;3.97;;;19.40;99.90;;;;;;4957285;28;20074;-67
2022/03/18 11:57:46;;;;;;;16.17;4.03;;;19.50;99.90;;;;;;4952740;28;20051;-68
2022/03/18 12:00:32;;;;;;;20.92;3.97;;;19.80;99.90;;;;;;4980079;28;20141;-67
2022/03/18 12:03:00;;;;;;;17.17;4.50;;;19.80;99.90;;;;;;4954854;28;20150;-68
2022/03/18 12:05:30;;;;;;;16.77;3.70;;;20.00;99.90;;;;;;4962037;28;20498;-70
2022/03/18 12:07:57;;;;;;;18.40;5.30;;;20.00;99.90;;;;;;4963709;28;20090;-67
2022/03/18 12:10:49;;;;;;;14.40;4.03;;;20.10;99.90;;;;;;4947062;28;20110;-67
2022/03/18 12:13:15;;;;;;;19.60;4.03;;;20.00;99.90;;;;;;4951985;28;20054;-67
2022/03/18 12:15:41;;;;;;;11.75;4.18;;;20.00;99.90;;;;;;4968126;28;20043;-67
2022/03/18 12:18:08;;;;;;;21.27;4.95;;;20.00;99.90;;;;;;4956776;28;20134;-67
2022/03/18 12:20:36;;;;;;;21.05;5.63;;;20.00;99.90;;;;;;4955964;28;20230;-67
2022/03/18 12:23:06;;;;;;;18.65;4.30;;;20.20;99.90;;;;;;4967871;28;20461;-67
2022/03/18 12:25:33;;;;;;;22.00;4.90;;;20.30;99.90;;;;;;4958230;28;20057;-67
2022/03/18 12:27:58;;;;;;;16.10;4.10;;;20.30;99.90;;;;;;4962206;28;20223;-67
2022/03/18 12:30:26;;;;;;;25.15;5.63;;;20.20;99.90;;;;;;4968721;28;20248;-67
2022/03/18 12:32:54;;;;;;;21.55;5.88;;;20.30;99.90;;;;;;4967880;28;20067;-67
2022/03/18 12:35:40;;;;;;;17.63;5.65;;;20.60;99.90;;;;;;4960775;28;20055;-67
2022/03/18 12:38:17;;;;;;;21.95;5.38;;;20.40;99.90;;;;;;4965153;28;20047;-67
2022/03/18 12:40:54;;;;;;;19.73;5.07;;;20.70;99.90;;;;;;4966675;28;20073;-67
2022/03/18 12:43:19;;;;;;;20.65;5.05;;;20.60;99.90;;;;;;4968806;28;20624;-67
2022/03/18 12:45:45;;;;;;;18.75;4.38;;;20.40;99.90;;;;;;4955967;28;20059;-67
2022/03/18 12:48:16;;;;;;;20.73;4.72;;;20.80;99.90;;;;;;4957746;28;20058;-67
2022/03/18 12:50:48;;;;;;;23.48;4.53;;;20.90;99.90;;;;;;4952016;28;20518;-67
2022/03/18 12:53:28;;;;;;;17.10;4.82;;;21.10;99.90;;;;;;4957723;28;20740;-67
2022/03/18 12:55:56;;;;;;;18.98;5.30;;;21.00;99.60;;;;;;4965837;28;20046;-67
2022/03/18 12:58:27;;;;;;;16.98;4.40;;;21.00;98.90;;;;;;4956111;28;20050;-67
2022/03/18 13:00:56;;;;;;;14.73;4.18;;;21.20;99.70;;;;;;4946785;28;20509;-67
2022/03/18 13:03:31;;;;;;;14.13;4.82;;;21.10;99.40;;;;;;4966368;28;20478;-67
2022/03/18 13:06:07;;;;;;;21.80;4.72;;;21.10;98.80;;;;;;4959802;28;20051;-68
2022/03/18 13:08:34;;;;;;;15.23;4.03;;;20.80;98.30;;;;;;4950261;28;20043;-67
2022/03/18 13:11:06;;;;;;;22.20;5.50;;;21.00;99.10;;;;;;4951236;28;20059;-68
2022/03/18 13:13:32;;;;;;;14.32;3.95;;;20.80;98.80;;;;;;4970846;28;20584;-68